sensor_id;sensor_type;location;lat;lon;timestamp;P1;durP1;ratioP1;P2;durP2;ratioP2
8913;SDS011;4492;48.736;9.092;2022-09-17T00:02:21;1.80;;;0.50;;
8913;SDS011;4492;48.736;9.092;2022-09-17T00:04:49;1.13;;;0.60;;
8913;SDS011;4492;48.736;9.092;2022-09-17T00:07:15;1.63;;;0.70;;
8913;SDS011;4492;48.736;9.092;2022-09-17T00:09:41;0.80;;;0.80;;
8913;SDS011;4492;48.736;9.092;2022-09-17T00:12:07;2.23;;;0.90;;
8913;SDS011;4492;48.736;9.092;2022-09-17T00:14:32;1.27;;;1.03;;
8913;SDS011;4492;48.736;9.092;2022-09-17T00:16:58;0.90;;;0.70;;
8913;SDS011;4492;48.736;9.092;2022-09-17T00:19:23;0.77;;;0.67;;
8913;SDS011;4492;48.736;9.092;2022-09-17T00:21:50;0.63;;;0.63;;
8913;SDS011;4492;48.736;9.092;2022-09-17T00:24:16;1.80;;;0.63;;
8913;SDS011;4492;48.736;9.092;2022-09-17T00:26:43;0.80;;;0.70;;
8913;SDS011;4492;48.736;9.092;2022-09-17T00:29:09;1.70;;;0.70;;
8913;SDS011;4492;48.736;9.092;2022-09-17T00:31:35;4.00;;;1.00;;
8913;SDS011;4492;48.736;9.092;2022-09-17T00:34:01;0.93;;;0.90;;
8913;SDS011;4492;48.736;9.092;2022-09-17T00:36:28;1.37;;;0.70;;
8913;SDS011;4492;48.736;9.092;2022-09-17T00:38:55;0.80;;;0.80;;
8913;SDS011;4492;48.736;9.092;2022-09-17T00:41:22;2.00;;;0.90;;
8913;SDS011;4492;48.736;9.092;2022-09-17T00:43:57;0.83;;;0.83;;
8913;SDS011;4492;48.736;9.092;2022-09-17T00:48:57;1.13;;;0.93;;
8913;SDS011;4492;48.736;9.092;2022-09-17T00:51:36;1.20;;;1.10;;
8913;SDS011;4492;48.736;9.092;2022-09-17T00:54:05;2.47;;;1.03;;
8913;SDS011;4492;48.736;9.092;2022-09-17T00:56:34;1.63;;;1.00;;
8913;SDS011;4492;48.736;9.092;2022-09-17T00:59:01;0.77;;;0.77;;
8913;SDS011;4492;48.736;9.092;2022-09-17T01:01:27;0.80;;;0.80;;
8913;SDS011;4492;48.736;9.092;2022-09-17T01:03:54;1.13;;;1.00;;
8913;SDS011;4492;48.736;9.092;2022-09-17T01:06:37;3.03;;;1.10;;
8913;SDS011;4492;48.736;9.092;2022-09-17T01:14:25;3.77;;;1.20;;
8913;SDS011;4492;48.736;9.092;2022-09-17T01:17:21;2.43;;;1.10;;
8913;SDS011;4492;48.736;9.092;2022-09-17T01:23:04;3.43;;;1.30;;
8913;SDS011;4492;48.736;9.092;2022-09-17T01:34:19;2.07;;;1.30;;
8913;SDS011;4492;48.736;9.092;2022-09-17T01:37:33;4.50;;;1.27;;
8913;SDS011;4492;48.736;9.092;2022-09-17T01:40:34;1.20;;;1.00;;
8913;SDS011;4492;48.736;9.092;2022-09-17T01:43:09;1.80;;;1.50;;
8913;SDS011;4492;48.736;9.092;2022-09-17T01:45:49;3.80;;;1.30;;
8913;SDS011;4492;48.736;9.092;2022-09-17T01:48:18;1.13;;;1.03;;
8913;SDS011;4492;48.736;9.092;2022-09-17T01:50:51;1.53;;;1.10;;
8913;SDS011;4492;48.736;9.092;2022-09-17T01:53:22;2.10;;;1.20;;
8913;SDS011;4492;48.736;9.092;2022-09-17T01:55:53;2.60;;;1.10;;
8913;SDS011;4492;48.736;9.092;2022-09-17T01:58:22;1.23;;;1.10;;
8913;SDS011;4492;48.736;9.092;2022-09-17T02:00:54;2.50;;;1.10;;
8913;SDS011;4492;48.736;9.092;2022-09-17T02:03:30;1.30;;;1.20;;
8913;SDS011;4492;48.736;9.092;2022-09-17T02:06:05;5.30;;;1.30;;
8913;SDS011;4492;48.736;9.092;2022-09-17T02:08:36;2.83;;;1.33;;
8913;SDS011;4492;48.736;9.092;2022-09-17T02:11:08;1.60;;;1.20;;
8913;SDS011;4492;48.736;9.092;2022-09-17T02:13:37;2.27;;;1.63;;
8913;SDS011;4492;48.736;9.092;2022-09-17T02:16:19;3.77;;;1.47;;
8913;SDS011;4492;48.736;9.092;2022-09-17T02:18:49;3.90;;;1.40;;
8913;SDS011;4492;48.736;9.092;2022-09-17T02:21:27;3.90;;;1.80;;
8913;SDS011;4492;48.736;9.092;2022-09-17T02:26:34;3.23;;;1.20;;
8913;SDS011;4492;48.736;9.092;2022-09-17T02:29:06;4.13;;;1.30;;
8913;SDS011;4492;48.736;9.092;2022-09-17T02:31:35;3.73;;;1.50;;
8913;SDS011;4492;48.736;9.092;2022-09-17T02:34:01;2.80;;;1.43;;
8913;SDS011;4492;48.736;9.092;2022-09-17T02:36:29;2.43;;;1.30;;
8913;SDS011;4492;48.736;9.092;2022-09-17T02:38:59;2.67;;;1.40;;
8913;SDS011;4492;48.736;9.092;2022-09-17T02:42:01;2.23;;;1.40;;
8913;SDS011;4492;48.736;9.092;2022-09-17T02:50:05;5.00;;;1.20;;
8913;SDS011;4492;48.736;9.092;2022-09-17T02:55:35;3.17;;;1.37;;
8913;SDS011;4492;48.736;9.092;2022-09-17T03:00:40;8.07;;;1.43;;
8913;SDS011;4492;48.736;9.092;2022-09-17T03:03:11;7.13;;;1.47;;
8913;SDS011;4492;48.736;9.092;2022-09-17T03:05:43;2.47;;;1.17;;
8913;SDS011;4492;48.736;9.092;2022-09-17T03:08:11;2.50;;;1.30;;
8913;SDS011;4492;48.736;9.092;2022-09-17T03:10:38;2.63;;;1.30;;
8913;SDS011;4492;48.736;9.092;2022-09-17T03:13:04;3.90;;;1.60;;
8913;SDS011;4492;48.736;9.092;2022-09-17T03:15:30;2.80;;;1.43;;
8913;SDS011;4492;48.736;9.092;2022-09-17T03:17:56;3.37;;;1.70;;
8913;SDS011;4492;48.736;9.092;2022-09-17T03:20:21;1.87;;;1.20;;
8913;SDS011;4492;48.736;9.092;2022-09-17T03:22:47;6.70;;;1.50;;
8913;SDS011;4492;48.736;9.092;2022-09-17T03:25:13;8.43;;;1.50;;
8913;SDS011;4492;48.736;9.092;2022-09-17T03:27:38;2.20;;;1.43;;
8913;SDS011;4492;48.736;9.092;2022-09-17T03:30:04;2.53;;;1.00;;
8913;SDS011;4492;48.736;9.092;2022-09-17T03:32:31;5.50;;;1.53;;
8913;SDS011;4492;48.736;9.092;2022-09-17T03:34:57;6.00;;;1.50;;
8913;SDS011;4492;48.736;9.092;2022-09-17T03:37:23;6.67;;;1.63;;
8913;SDS011;4492;48.736;9.092;2022-09-17T03:39:48;2.80;;;1.30;;
8913;SDS011;4492;48.736;9.092;2022-09-17T03:42:14;2.77;;;1.00;;
8913;SDS011;4492;48.736;9.092;2022-09-17T03:44:39;3.47;;;1.27;;
8913;SDS011;4492;48.736;9.092;2022-09-17T03:47:05;3.10;;;1.17;;
8913;SDS011;4492;48.736;9.092;2022-09-17T03:49:31;5.33;;;1.50;;
8913;SDS011;4492;48.736;9.092;2022-09-17T03:51:57;5.03;;;1.87;;
8913;SDS011;4492;48.736;9.092;2022-09-17T03:54:22;5.70;;;1.53;;
8913;SDS011;4492;48.736;9.092;2022-09-17T03:56:48;1.10;;;1.00;;
8913;SDS011;4492;48.736;9.092;2022-09-17T03:59:13;7.07;;;1.43;;
8913;SDS011;4492;48.736;9.092;2022-09-17T04:01:39;3.97;;;0.93;;
8913;SDS011;4492;48.736;9.092;2022-09-17T04:04:05;0.93;;;0.90;;
8913;SDS011;4492;48.736;9.092;2022-09-17T04:06:30;8.40;;;1.53;;
8913;SDS011;4492;48.736;9.092;2022-09-17T04:08:56;1.20;;;1.00;;
8913;SDS011;4492;48.736;9.092;2022-09-17T04:11:22;5.97;;;1.53;;
8913;SDS011;4492;48.736;9.092;2022-09-17T04:13:47;18.33;;;1.83;;
8913;SDS011;4492;48.736;9.092;2022-09-17T04:16:13;4.10;;;1.43;;
8913;SDS011;4492;48.736;9.092;2022-09-17T04:18:39;5.70;;;1.23;;
8913;SDS011;4492;48.736;9.092;2022-09-17T04:21:05;3.07;;;1.10;;
8913;SDS011;4492;48.736;9.092;2022-09-17T04:23:30;3.33;;;1.20;;
8913;SDS011;4492;48.736;9.092;2022-09-17T04:25:56;3.83;;;1.73;;
8913;SDS011;4492;48.736;9.092;2022-09-17T04:28:22;3.87;;;1.10;;
8913;SDS011;4492;48.736;9.092;2022-09-17T04:30:47;3.93;;;1.50;;
8913;SDS011;4492;48.736;9.092;2022-09-17T04:33:13;4.47;;;1.47;;
8913;SDS011;4492;48.736;9.092;2022-09-17T04:35:39;8.50;;;1.60;;
8913;SDS011;4492;48.736;9.092;2022-09-17T04:38:04;11.20;;;1.60;;
8913;SDS011;4492;48.736;9.092;2022-09-17T04:40:30;4.83;;;1.30;;
8913;SDS011;4492;48.736;9.092;2022-09-17T04:42:56;3.60;;;1.83;;
8913;SDS011;4492;48.736;9.092;2022-09-17T04:45:23;9.70;;;1.53;;
8913;SDS011;4492;48.736;9.092;2022-09-17T04:47:49;3.30;;;1.50;;
8913;SDS011;4492;48.736;9.092;2022-09-17T04:50:15;5.77;;;1.40;;
8913;SDS011;4492;48.736;9.092;2022-09-17T04:52:42;6.13;;;1.40;;
8913;SDS011;4492;48.736;9.092;2022-09-17T04:55:08;4.63;;;1.30;;
8913;SDS011;4492;48.736;9.092;2022-09-17T04:57:34;7.77;;;1.30;;
8913;SDS011;4492;48.736;9.092;2022-09-17T04:59:59;4.77;;;1.30;;
8913;SDS011;4492;48.736;9.092;2022-09-17T05:02:25;5.27;;;1.20;;
8913;SDS011;4492;48.736;9.092;2022-09-17T05:04:51;5.63;;;1.40;;
8913;SDS011;4492;48.736;9.092;2022-09-17T05:07:16;3.47;;;1.20;;
8913;SDS011;4492;48.736;9.092;2022-09-17T05:09:42;4.37;;;1.27;;
8913;SDS011;4492;48.736;9.092;2022-09-17T05:12:08;3.40;;;1.47;;
8913;SDS011;4492;48.736;9.092;2022-09-17T05:14:33;10.23;;;1.80;;
8913;SDS011;4492;48.736;9.092;2022-09-17T05:16:59;4.83;;;1.50;;
8913;SDS011;4492;48.736;9.092;2022-09-17T05:19:24;4.73;;;1.30;;
8913;SDS011;4492;48.736;9.092;2022-09-17T05:21:50;7.87;;;1.60;;
8913;SDS011;4492;48.736;9.092;2022-09-17T05:24:15;5.77;;;1.47;;
8913;SDS011;4492;48.736;9.092;2022-09-17T05:26:41;4.00;;;1.57;;
8913;SDS011;4492;48.736;9.092;2022-09-17T05:29:06;5.73;;;1.53;;
8913;SDS011;4492;48.736;9.092;2022-09-17T05:31:32;5.17;;;1.37;;
8913;SDS011;4492;48.736;9.092;2022-09-17T05:33:58;6.33;;;1.60;;
8913;SDS011;4492;48.736;9.092;2022-09-17T05:36:24;5.33;;;1.37;;
8913;SDS011;4492;48.736;9.092;2022-09-17T05:38:50;1.93;;;1.03;;
8913;SDS011;4492;48.736;9.092;2022-09-17T05:41:15;2.67;;;1.60;;
8913;SDS011;4492;48.736;9.092;2022-09-17T05:43:44;1.47;;;1.17;;
8913;SDS011;4492;48.736;9.092;2022-09-17T05:46:10;4.37;;;1.30;;
8913;SDS011;4492;48.736;9.092;2022-09-17T05:48:35;3.90;;;1.53;;
8913;SDS011;4492;48.736;9.092;2022-09-17T05:51:01;4.47;;;1.40;;
8913;SDS011;4492;48.736;9.092;2022-09-17T05:53:27;6.60;;;1.90;;
8913;SDS011;4492;48.736;9.092;2022-09-17T05:55:56;5.70;;;1.37;;
8913;SDS011;4492;48.736;9.092;2022-09-17T05:58:22;5.53;;;1.43;;
8913;SDS011;4492;48.736;9.092;2022-09-17T06:00:49;2.57;;;1.20;;
8913;SDS011;4492;48.736;9.092;2022-09-17T06:03:15;2.67;;;1.33;;
8913;SDS011;4492;48.736;9.092;2022-09-17T06:05:43;3.40;;;1.53;;
8913;SDS011;4492;48.736;9.092;2022-09-17T06:08:17;3.40;;;1.43;;
8913;SDS011;4492;48.736;9.092;2022-09-17T06:10:42;4.87;;;1.57;;
8913;SDS011;4492;48.736;9.092;2022-09-17T06:13:08;5.03;;;1.30;;
8913;SDS011;4492;48.736;9.092;2022-09-17T06:15:33;5.10;;;1.47;;
8913;SDS011;4492;48.736;9.092;2022-09-17T06:17:59;4.83;;;1.90;;
8913;SDS011;4492;48.736;9.092;2022-09-17T06:20:24;5.80;;;1.50;;
8913;SDS011;4492;48.736;9.092;2022-09-17T06:22:54;4.07;;;1.40;;
8913;SDS011;4492;48.736;9.092;2022-09-17T06:25:21;2.93;;;1.60;;
8913;SDS011;4492;48.736;9.092;2022-09-17T06:27:47;8.10;;;1.87;;
8913;SDS011;4492;48.736;9.092;2022-09-17T06:30:13;5.67;;;1.60;;
8913;SDS011;4492;48.736;9.092;2022-09-17T06:32:39;5.07;;;1.50;;
8913;SDS011;4492;48.736;9.092;2022-09-17T06:35:05;5.10;;;1.80;;
8913;SDS011;4492;48.736;9.092;2022-09-17T06:37:31;5.30;;;1.50;;
8913;SDS011;4492;48.736;9.092;2022-09-17T06:39:57;4.67;;;1.47;;
8913;SDS011;4492;48.736;9.092;2022-09-17T06:42:24;4.17;;;1.30;;
8913;SDS011;4492;48.736;9.092;2022-09-17T06:44:50;3.73;;;1.80;;
8913;SDS011;4492;48.736;9.092;2022-09-17T06:47:16;4.97;;;1.70;;
8913;SDS011;4492;48.736;9.092;2022-09-17T06:49:41;5.77;;;1.97;;
8913;SDS011;4492;48.736;9.092;2022-09-17T06:52:07;5.77;;;1.60;;
8913;SDS011;4492;48.736;9.092;2022-09-17T06:54:33;7.17;;;1.50;;
8913;SDS011;4492;48.736;9.092;2022-09-17T06:56:59;3.73;;;1.27;;
8913;SDS011;4492;48.736;9.092;2022-09-17T06:59:25;7.60;;;1.47;;
8913;SDS011;4492;48.736;9.092;2022-09-17T07:01:52;6.93;;;1.70;;
8913;SDS011;4492;48.736;9.092;2022-09-17T07:04:17;3.33;;;1.40;;
8913;SDS011;4492;48.736;9.092;2022-09-17T07:06:43;4.10;;;1.77;;
8913;SDS011;4492;48.736;9.092;2022-09-17T07:09:09;4.50;;;1.37;;
8913;SDS011;4492;48.736;9.092;2022-09-17T07:11:35;5.30;;;1.57;;
8913;SDS011;4492;48.736;9.092;2022-09-17T07:14:02;3.93;;;1.50;;
8913;SDS011;4492;48.736;9.092;2022-09-17T07:16:28;3.70;;;1.27;;
8913;SDS011;4492;48.736;9.092;2022-09-17T07:18:56;3.17;;;1.60;;
8913;SDS011;4492;48.736;9.092;2022-09-17T07:21:22;5.13;;;1.50;;
8913;SDS011;4492;48.736;9.092;2022-09-17T07:23:47;5.83;;;1.53;;
8913;SDS011;4492;48.736;9.092;2022-09-17T07:26:15;2.97;;;1.50;;
8913;SDS011;4492;48.736;9.092;2022-09-17T07:28:41;6.93;;;1.70;;
8913;SDS011;4492;48.736;9.092;2022-09-17T07:31:08;4.50;;;1.60;;
8913;SDS011;4492;48.736;9.092;2022-09-17T07:33:34;7.83;;;1.70;;
8913;SDS011;4492;48.736;9.092;2022-09-17T07:36:02;2.90;;;1.30;;
8913;SDS011;4492;48.736;9.092;2022-09-17T07:38:29;4.60;;;1.27;;
8913;SDS011;4492;48.736;9.092;2022-09-17T07:41:02;2.93;;;1.50;;
8913;SDS011;4492;48.736;9.092;2022-09-17T07:43:32;1.67;;;1.57;;
8913;SDS011;4492;48.736;9.092;2022-09-17T07:45:59;2.23;;;1.20;;
8913;SDS011;4492;48.736;9.092;2022-09-17T07:48:26;2.80;;;1.30;;
8913;SDS011;4492;48.736;9.092;2022-09-17T07:50:53;1.47;;;1.10;;
8913;SDS011;4492;48.736;9.092;2022-09-17T07:53:19;3.60;;;1.43;;
8913;SDS011;4492;48.736;9.092;2022-09-17T07:55:53;3.53;;;1.50;;
8913;SDS011;4492;48.736;9.092;2022-09-17T07:58:26;2.73;;;1.30;;
8913;SDS011;4492;48.736;9.092;2022-09-17T08:01:01;2.27;;;1.50;;
8913;SDS011;4492;48.736;9.092;2022-09-17T08:03:34;2.10;;;1.27;;
8913;SDS011;4492;48.736;9.092;2022-09-17T08:06:01;2.87;;;1.27;;
8913;SDS011;4492;48.736;9.092;2022-09-17T08:08:28;2.97;;;1.50;;
8913;SDS011;4492;48.736;9.092;2022-09-17T08:10:59;6.33;;;1.70;;
8913;SDS011;4492;48.736;9.092;2022-09-17T08:13:25;2.37;;;1.70;;
8913;SDS011;4492;48.736;9.092;2022-09-17T08:15:51;3.20;;;1.97;;
8913;SDS011;4492;48.736;9.092;2022-09-17T08:18:16;3.83;;;1.30;;
8913;SDS011;4492;48.736;9.092;2022-09-17T08:20:42;2.43;;;1.50;;
8913;SDS011;4492;48.736;9.092;2022-09-17T08:23:07;3.73;;;1.77;;
8913;SDS011;4492;48.736;9.092;2022-09-17T08:25:33;2.17;;;1.70;;
8913;SDS011;4492;48.736;9.092;2022-09-17T08:27:59;6.37;;;1.90;;
8913;SDS011;4492;48.736;9.092;2022-09-17T08:30:24;6.37;;;1.80;;
8913;SDS011;4492;48.736;9.092;2022-09-17T08:32:50;2.73;;;1.40;;
8913;SDS011;4492;48.736;9.092;2022-09-17T08:35:18;5.57;;;1.80;;
8913;SDS011;4492;48.736;9.092;2022-09-17T08:37:44;4.03;;;1.77;;
8913;SDS011;4492;48.736;9.092;2022-09-17T08:40:15;7.83;;;1.70;;
8913;SDS011;4492;48.736;9.092;2022-09-17T08:42:54;5.57;;;1.67;;
8913;SDS011;4492;48.736;9.092;2022-09-17T08:45:25;5.83;;;1.97;;
8913;SDS011;4492;48.736;9.092;2022-09-17T08:47:51;6.90;;;1.50;;
8913;SDS011;4492;48.736;9.092;2022-09-17T08:53:08;6.47;;;1.83;;
8913;SDS011;4492;48.736;9.092;2022-09-17T08:55:43;6.80;;;1.60;;
8913;SDS011;4492;48.736;9.092;2022-09-17T09:06:26;7.93;;;1.73;;
8913;SDS011;4492;48.736;9.092;2022-09-17T09:09:04;6.97;;;1.67;;
8913;SDS011;4492;48.736;9.092;2022-09-17T09:11:36;5.83;;;1.97;;
8913;SDS011;4492;48.736;9.092;2022-09-17T09:14:08;5.77;;;1.77;;
8913;SDS011;4492;48.736;9.092;2022-09-17T09:16:48;10.90;;;2.30;;
8913;SDS011;4492;48.736;9.092;2022-09-17T09:19:27;7.77;;;2.00;;
8913;SDS011;4492;48.736;9.092;2022-09-17T09:22:02;5.93;;;1.60;;
8913;SDS011;4492;48.736;9.092;2022-09-17T09:24:44;13.57;;;2.20;;
8913;SDS011;4492;48.736;9.092;2022-09-17T09:27:35;10.60;;;2.17;;
8913;SDS011;4492;48.736;9.092;2022-09-17T09:30:11;5.73;;;1.70;;
8913;SDS011;4492;48.736;9.092;2022-09-17T09:32:59;7.00;;;2.20;;
8913;SDS011;4492;48.736;9.092;2022-09-17T09:35:33;6.50;;;1.93;;
8913;SDS011;4492;48.736;9.092;2022-09-17T09:38:02;7.97;;;1.90;;
8913;SDS011;4492;48.736;9.092;2022-09-17T09:40:52;6.73;;;2.17;;
8913;SDS011;4492;48.736;9.092;2022-09-17T09:43:33;7.90;;;1.93;;
8913;SDS011;4492;48.736;9.092;2022-09-17T09:57:11;7.97;;;1.97;;
8913;SDS011;4492;48.736;9.092;2022-09-17T09:59:40;9.00;;;2.13;;
8913;SDS011;4492;48.736;9.092;2022-09-17T10:02:06;5.97;;;1.87;;
8913;SDS011;4492;48.736;9.092;2022-09-17T10:04:32;8.10;;;1.50;;
8913;SDS011;4492;48.736;9.092;2022-09-17T10:07:02;5.67;;;1.57;;
8913;SDS011;4492;48.736;9.092;2022-09-17T10:09:29;6.83;;;1.70;;
8913;SDS011;4492;48.736;9.092;2022-09-17T10:11:59;8.17;;;1.37;;
8913;SDS011;4492;48.736;9.092;2022-09-17T10:14:28;4.60;;;1.73;;
8913;SDS011;4492;48.736;9.092;2022-09-17T10:20:30;6.63;;;1.97;;
8913;SDS011;4492;48.736;9.092;2022-09-17T10:22:44;5.80;;;1.60;;
8913;SDS011;4492;48.736;9.092;2022-09-17T10:25:22;6.07;;;1.60;;
8913;SDS011;4492;48.736;9.092;2022-09-17T10:27:53;4.50;;;1.60;;
8913;SDS011;4492;48.736;9.092;2022-09-17T10:30:21;1.77;;;1.07;;
8913;SDS011;4492;48.736;9.092;2022-09-17T10:33:09;6.60;;;1.33;;
8913;SDS011;4492;48.736;9.092;2022-09-17T10:35:39;5.23;;;1.47;;
8913;SDS011;4492;48.736;9.092;2022-09-17T10:38:24;6.23;;;1.43;;
8913;SDS011;4492;48.736;9.092;2022-09-17T10:41:09;4.07;;;1.47;;
8913;SDS011;4492;48.736;9.092;2022-09-17T10:43:49;5.53;;;2.10;;
8913;SDS011;4492;48.736;9.092;2022-09-17T10:46:17;10.10;;;1.93;;
8913;SDS011;4492;48.736;9.092;2022-09-17T10:49:10;4.50;;;1.33;;
8913;SDS011;4492;48.736;9.092;2022-09-17T10:51:42;2.83;;;1.53;;
8913;SDS011;4492;48.736;9.092;2022-09-17T10:56:38;6.20;;;1.33;;
8913;SDS011;4492;48.736;9.092;2022-09-17T10:59:25;5.17;;;1.53;;
8913;SDS011;4492;48.736;9.092;2022-09-17T11:07:52;2.60;;;1.10;;
8913;SDS011;4492;48.736;9.092;2022-09-17T11:10:41;4.73;;;1.17;;
8913;SDS011;4492;48.736;9.092;2022-09-17T11:16:18;3.23;;;1.13;;
8913;SDS011;4492;48.736;9.092;2022-09-17T11:22:36;5.07;;;1.20;;
8913;SDS011;4492;48.736;9.092;2022-09-17T11:24:42;3.23;;;1.13;;
8913;SDS011;4492;48.736;9.092;2022-09-17T11:27:16;1.93;;;1.30;;
8913;SDS011;4492;48.736;9.092;2022-09-17T11:35:26;3.80;;;1.10;;
8913;SDS011;4492;48.736;9.092;2022-09-17T11:37:59;2.27;;;0.90;;
8913;SDS011;4492;48.736;9.092;2022-09-17T11:40:36;2.57;;;0.73;;
8913;SDS011;4492;48.736;9.092;2022-09-17T11:43:13;1.67;;;0.80;;
8913;SDS011;4492;48.736;9.092;2022-09-17T11:45:59;5.47;;;1.60;;
8913;SDS011;4492;48.736;9.092;2022-09-17T11:48:54;4.20;;;1.07;;
8913;SDS011;4492;48.736;9.092;2022-09-17T11:54:02;2.67;;;1.00;;
8913;SDS011;4492;48.736;9.092;2022-09-17T11:56:49;4.17;;;0.97;;
8913;SDS011;4492;48.736;9.092;2022-09-17T11:59:55;4.87;;;0.90;;
8913;SDS011;4492;48.736;9.092;2022-09-17T12:02:44;3.10;;;0.80;;
8913;SDS011;4492;48.736;9.092;2022-09-17T12:11:12;2.70;;;1.20;;
8913;SDS011;4492;48.736;9.092;2022-09-17T12:13:45;5.20;;;0.90;;
8913;SDS011;4492;48.736;9.092;2022-09-17T12:16:23;1.60;;;0.83;;
8913;SDS011;4492;48.736;9.092;2022-09-17T12:18:54;2.53;;;1.07;;
8913;SDS011;4492;48.736;9.092;2022-09-17T12:21:26;0.90;;;0.57;;
8913;SDS011;4492;48.736;9.092;2022-09-17T12:24:12;2.97;;;0.80;;
8913;SDS011;4492;48.736;9.092;2022-09-17T12:29:57;1.43;;;0.67;;
8913;SDS011;4492;48.736;9.092;2022-09-17T12:32:22;2.40;;;0.90;;
8913;SDS011;4492;48.736;9.092;2022-09-17T12:35:06;2.03;;;0.50;;
8913;SDS011;4492;48.736;9.092;2022-09-17T12:51:36;1.43;;;0.53;;
8913;SDS011;4492;48.736;9.092;2022-09-17T12:54:32;1.97;;;0.67;;
8913;SDS011;4492;48.736;9.092;2022-09-17T12:59:54;3.30;;;0.90;;
8913;SDS011;4492;48.736;9.092;2022-09-17T13:08:07;2.37;;;0.83;;
8913;SDS011;4492;48.736;9.092;2022-09-17T13:11:09;4.03;;;0.60;;
8913;SDS011;4492;48.736;9.092;2022-09-17T13:13:42;1.63;;;0.60;;
8913;SDS011;4492;48.736;9.092;2022-09-17T13:19:29;1.77;;;0.80;;
8913;SDS011;4492;48.736;9.092;2022-09-17T13:22:05;0.93;;;0.77;;
8913;SDS011;4492;48.736;9.092;2022-09-17T13:24:34;2.23;;;0.90;;
8913;SDS011;4492;48.736;9.092;2022-09-17T13:27:01;3.63;;;0.80;;
8913;SDS011;4492;48.736;9.092;2022-09-17T13:34:57;1.17;;;0.90;;
8913;SDS011;4492;48.736;9.092;2022-09-17T13:37:39;2.63;;;1.00;;
8913;SDS011;4492;48.736;9.092;2022-09-17T13:40:52;1.47;;;0.90;;
8913;SDS011;4492;48.736;9.092;2022-09-17T13:42:54;3.90;;;1.23;;
8913;SDS011;4492;48.736;9.092;2022-09-17T13:45:32;1.20;;;0.80;;
8913;SDS011;4492;48.736;9.092;2022-09-17T13:48:22;1.77;;;0.70;;
8913;SDS011;4492;48.736;9.092;2022-09-17T13:50:49;1.10;;;0.70;;
8913;SDS011;4492;48.736;9.092;2022-09-17T13:55:42;0.60;;;0.60;;
8913;SDS011;4492;48.736;9.092;2022-09-17T13:58:10;2.53;;;1.23;;
8913;SDS011;4492;48.736;9.092;2022-09-17T14:13:51;0.83;;;0.80;;
8913;SDS011;4492;48.736;9.092;2022-09-17T14:16:24;2.73;;;1.03;;
8913;SDS011;4492;48.736;9.092;2022-09-17T14:18:57;2.33;;;0.90;;
8913;SDS011;4492;48.736;9.092;2022-09-17T14:21:31;1.87;;;0.80;;
8913;SDS011;4492;48.736;9.092;2022-09-17T14:24:19;3.80;;;0.80;;
8913;SDS011;4492;48.736;9.092;2022-09-17T14:26:51;1.53;;;0.87;;
8913;SDS011;4492;48.736;9.092;2022-09-17T14:29:25;2.23;;;1.00;;
8913;SDS011;4492;48.736;9.092;2022-09-17T14:31:55;3.77;;;1.00;;
8913;SDS011;4492;48.736;9.092;2022-09-17T14:34:22;1.97;;;0.90;;
8913;SDS011;4492;48.736;9.092;2022-09-17T14:36:49;2.23;;;0.93;;
8913;SDS011;4492;48.736;9.092;2022-09-17T14:39:23;2.50;;;1.03;;
8913;SDS011;4492;48.736;9.092;2022-09-17T14:41:54;4.20;;;0.70;;
8913;SDS011;4492;48.736;9.092;2022-09-17T14:44:24;3.60;;;1.03;;
8913;SDS011;4492;48.736;9.092;2022-09-17T14:51:58;2.83;;;1.00;;
8913;SDS011;4492;48.736;9.092;2022-09-17T14:54:29;2.00;;;1.37;;
8913;SDS011;4492;48.736;9.092;2022-09-17T14:56:59;2.13;;;0.70;;
8913;SDS011;4492;48.736;9.092;2022-09-17T14:59:56;1.10;;;1.00;;
8913;SDS011;4492;48.736;9.092;2022-09-17T15:02:36;1.93;;;0.80;;
8913;SDS011;4492;48.736;9.092;2022-09-17T15:05:19;2.20;;;1.00;;
8913;SDS011;4492;48.736;9.092;2022-09-17T15:07:46;4.63;;;1.30;;
8913;SDS011;4492;48.736;9.092;2022-09-17T15:10:20;2.67;;;1.10;;
8913;SDS011;4492;48.736;9.092;2022-09-17T15:12:46;2.63;;;0.90;;
8913;SDS011;4492;48.736;9.092;2022-09-17T15:15:23;2.90;;;1.13;;
8913;SDS011;4492;48.736;9.092;2022-09-17T15:17:50;3.57;;;1.10;;
8913;SDS011;4492;48.736;9.092;2022-09-17T15:20:19;1.53;;;0.80;;
8913;SDS011;4492;48.736;9.092;2022-09-17T15:22:55;3.70;;;1.10;;
8913;SDS011;4492;48.736;9.092;2022-09-17T15:25:38;4.07;;;1.03;;
8913;SDS011;4492;48.736;9.092;2022-09-17T15:28:12;2.87;;;1.23;;
8913;SDS011;4492;48.736;9.092;2022-09-17T15:31:03;1.20;;;1.00;;
8913;SDS011;4492;48.736;9.092;2022-09-17T15:33:30;2.20;;;1.00;;
8913;SDS011;4492;48.736;9.092;2022-09-17T15:35:57;3.10;;;1.07;;
8913;SDS011;4492;48.736;9.092;2022-09-17T15:38:32;1.70;;;1.00;;
8913;SDS011;4492;48.736;9.092;2022-09-17T15:43:42;3.43;;;1.10;;
8913;SDS011;4492;48.736;9.092;2022-09-17T15:48:51;5.17;;;1.00;;
8913;SDS011;4492;48.736;9.092;2022-09-17T15:51:23;2.90;;;1.20;;
8913;SDS011;4492;48.736;9.092;2022-09-17T15:53:52;2.90;;;1.00;;
8913;SDS011;4492;48.736;9.092;2022-09-17T15:56:21;2.00;;;1.17;;
8913;SDS011;4492;48.736;9.092;2022-09-17T15:58:52;1.30;;;0.83;;
8913;SDS011;4492;48.736;9.092;2022-09-17T16:08:50;1.63;;;0.70;;
8913;SDS011;4492;48.736;9.092;2022-09-17T16:11:21;4.97;;;1.07;;
8913;SDS011;4492;48.736;9.092;2022-09-17T16:13:48;1.77;;;1.17;;
8913;SDS011;4492;48.736;9.092;2022-09-17T16:16:15;2.97;;;1.10;;
8913;SDS011;4492;48.736;9.092;2022-09-17T16:18:46;3.63;;;1.03;;
8913;SDS011;4492;48.736;9.092;2022-09-17T16:21:12;2.47;;;1.07;;
8913;SDS011;4492;48.736;9.092;2022-09-17T16:23:39;1.73;;;0.77;;
8913;SDS011;4492;48.736;9.092;2022-09-17T16:26:05;2.60;;;0.80;;
8913;SDS011;4492;48.736;9.092;2022-09-17T16:28:34;2.90;;;1.10;;
8913;SDS011;4492;48.736;9.092;2022-09-17T16:31:00;1.43;;;0.87;;
8913;SDS011;4492;48.736;9.092;2022-09-17T16:33:25;3.23;;;1.10;;
8913;SDS011;4492;48.736;9.092;2022-09-17T16:35:55;1.90;;;0.80;;
8913;SDS011;4492;48.736;9.092;2022-09-17T16:38:21;1.53;;;0.93;;
8913;SDS011;4492;48.736;9.092;2022-09-17T16:40:46;1.90;;;0.97;;
8913;SDS011;4492;48.736;9.092;2022-09-17T16:43:12;2.57;;;1.00;;
8913;SDS011;4492;48.736;9.092;2022-09-17T16:45:38;4.20;;;1.07;;
8913;SDS011;4492;48.736;9.092;2022-09-17T16:48:04;2.40;;;0.90;;
8913;SDS011;4492;48.736;9.092;2022-09-17T16:50:30;3.40;;;0.83;;
8913;SDS011;4492;48.736;9.092;2022-09-17T16:52:56;3.17;;;1.10;;
8913;SDS011;4492;48.736;9.092;2022-09-17T16:55:22;3.73;;;1.17;;
8913;SDS011;4492;48.736;9.092;2022-09-17T16:57:48;3.03;;;1.20;;
8913;SDS011;4492;48.736;9.092;2022-09-17T17:00:17;4.03;;;1.03;;
8913;SDS011;4492;48.736;9.092;2022-09-17T17:02:50;3.37;;;1.23;;
8913;SDS011;4492;48.736;9.092;2022-09-17T17:05:17;2.13;;;1.03;;
8913;SDS011;4492;48.736;9.092;2022-09-17T17:07:43;2.43;;;1.07;;
8913;SDS011;4492;48.736;9.092;2022-09-17T17:10:08;2.43;;;0.90;;
8913;SDS011;4492;48.736;9.092;2022-09-17T17:12:34;2.37;;;0.90;;
8913;SDS011;4492;48.736;9.092;2022-09-17T17:15:01;2.60;;;0.90;;
8913;SDS011;4492;48.736;9.092;2022-09-17T17:17:26;3.70;;;0.80;;
8913;SDS011;4492;48.736;9.092;2022-09-17T17:19:53;4.30;;;0.90;;
8913;SDS011;4492;48.736;9.092;2022-09-17T17:22:19;2.13;;;1.00;;
8913;SDS011;4492;48.736;9.092;2022-09-17T17:24:45;3.07;;;1.30;;
8913;SDS011;4492;48.736;9.092;2022-09-17T17:27:10;3.87;;;1.00;;
8913;SDS011;4492;48.736;9.092;2022-09-17T17:29:37;2.33;;;1.07;;
8913;SDS011;4492;48.736;9.092;2022-09-17T17:32:03;2.53;;;1.03;;
8913;SDS011;4492;48.736;9.092;2022-09-17T17:34:29;3.50;;;1.20;;
8913;SDS011;4492;48.736;9.092;2022-09-17T17:36:56;3.03;;;1.27;;
8913;SDS011;4492;48.736;9.092;2022-09-17T17:39:23;1.73;;;1.07;;
8913;SDS011;4492;48.736;9.092;2022-09-17T17:41:48;6.80;;;1.50;;
8913;SDS011;4492;48.736;9.092;2022-09-17T17:44:14;2.93;;;0.97;;
8913;SDS011;4492;48.736;9.092;2022-09-17T17:46:40;1.87;;;0.80;;
8913;SDS011;4492;48.736;9.092;2022-09-17T17:49:06;3.60;;;1.00;;
8913;SDS011;4492;48.736;9.092;2022-09-17T17:51:32;3.13;;;1.20;;
8913;SDS011;4492;48.736;9.092;2022-09-17T17:53:58;4.20;;;1.20;;
8913;SDS011;4492;48.736;9.092;2022-09-17T17:56:24;1.40;;;0.77;;
8913;SDS011;4492;48.736;9.092;2022-09-17T17:58:54;3.13;;;1.03;;
8913;SDS011;4492;48.736;9.092;2022-09-17T18:01:23;2.77;;;0.80;;
8913;SDS011;4492;48.736;9.092;2022-09-17T18:03:56;2.37;;;1.00;;
8913;SDS011;4492;48.736;9.092;2022-09-17T18:06:26;2.53;;;1.23;;
8913;SDS011;4492;48.736;9.092;2022-09-17T18:08:52;1.97;;;1.00;;
8913;SDS011;4492;48.736;9.092;2022-09-17T18:11:18;2.20;;;1.10;;